Hammer Airport


Codes: 00IL/
Name: Hammer Airport
City: Polo
Country: United States
Elevation: 840 ft.

Photos at Hammer Airport


   Photos courtesy of SpottingLog. You can add your own sightings and photos by signing up for a free trial today.



No photos found.

Weather at Hammer Airport


Time (UTC)DescriptionTempratureWindCloud coverageVisibilityPressureHumidity
19-Apr-2024 03:00Light Rain9°C9 mph, N93%10000m1018hPa60%
19-Apr-2024 06:00Overcast Clouds8°C13 mph, NW86%10000m1018hPa67%
19-Apr-2024 09:00Broken Clouds5°C9 mph, NW51%10000m1019hPa70%
19-Apr-2024 12:00Few Clouds3°C7 mph, W15%10000m1021hPa77%
19-Apr-2024 15:00Few Clouds8°C16 mph, W13%10000m1021hPa56%
19-Apr-2024 18:00Few Clouds10°C20 mph, W23%10000m1020hPa43%
19-Apr-2024 21:00Few Clouds11°C20 mph, W14%10000m1019hPa41%
20-Apr-2024 00:00Few Clouds8°C16 mph, W16%10000m1020hPa51%
20-Apr-2024 03:00Broken Clouds5°C11 mph, NW64%10000m1022hPa58%
20-Apr-2024 06:00Scattered Clouds3°C9 mph, W47%10000m1023hPa62%
20-Apr-2024 09:00Few Clouds2°C13 mph, NW24%10000m1023hPa59%
20-Apr-2024 12:00Few Clouds1°C11 mph, W15%10000m1025hPa71%
20-Apr-2024 15:00Clear Sky5°C16 mph, NW2%10000m1026hPa54%
20-Apr-2024 18:00Scattered Clouds8°C16 mph, NW47%10000m1024hPa48%
20-Apr-2024 21:00Overcast Clouds8°C16 mph, NW100%10000m1023hPa48%
21-Apr-2024 00:00Overcast Clouds7°C11 mph, NW100%10000m1023hPa59%
21-Apr-2024 03:00Overcast Clouds4°C7 mph, NW100%10000m1025hPa71%
21-Apr-2024 06:00Broken Clouds2°C7 mph, NW66%10000m1024hPa75%
21-Apr-2024 09:00Broken Clouds2°C7 mph, W65%10000m1024hPa77%
21-Apr-2024 12:00Scattered Clouds1°C7 mph, W32%10000m1024hPa76%
21-Apr-2024 15:00Clear Sky8°C9 mph, NW0%10000m1024hPa48%
21-Apr-2024 18:00Clear Sky11°C9 mph, NW0%10000m1022hPa41%
21-Apr-2024 21:00Clear Sky13°C11 mph, W4%10000m1019hPa41%
22-Apr-2024 00:00Clear Sky10°C7 mph, W5%10000m1019hPa59%
22-Apr-2024 03:00Clear Sky7°C7 mph, W2%10000m1020hPa66%
22-Apr-2024 06:00Clear Sky5°C7 mph, W1%10000m1019hPa69%
22-Apr-2024 09:00Clear Sky5°C7 mph, SW2%10000m1018hPa71%
22-Apr-2024 12:00Clear Sky5°C7 mph, SW7%10000m1018hPa71%
22-Apr-2024 15:00Broken Clouds11°C9 mph, SW57%10000m1017hPa57%
22-Apr-2024 18:00Broken Clouds14°C13 mph, SW78%10000m1014hPa46%
22-Apr-2024 21:00Overcast Clouds14°C16 mph, SW100%10000m1012hPa55%
23-Apr-2024 00:00Light Rain12°C9 mph, S100%10000m1011hPa66%
23-Apr-2024 03:00Light Rain12°C13 mph, S100%10000m1009hPa71%
23-Apr-2024 06:00Light Rain11°C16 mph, S100%10000m1007hPa73%
23-Apr-2024 09:00Light Rain12°C13 mph, SW100%10000m1006hPa88%
23-Apr-2024 12:00Overcast Clouds11°C9 mph, SW100%10000m1007hPa96%
23-Apr-2024 15:00Few Clouds15°C16 mph, W18%10000m1007hPa62%
23-Apr-2024 18:00Clear Sky16°C20 mph, W10%10000m1007hPa48%
23-Apr-2024 21:00Light Rain8°C18 mph, NW64%10000m1011hPa81%
24-Apr-2024 00:00Broken Clouds3°C20 mph, N82%10000m1018hPa85%